Time;durP1;ratioP1;P1;durP2;ratioP2;P2;SDS_P1;SDS_P2;PMS_P1;PMS_P2;Temp;Humidity;BMP_temperature;BMP_pressure;BME280_temperature;BME280_humidity;BME280_pressure;Samples;Min_cycle;Max_cycle;Signal;HPM_P1;HPM_P2
2022/01/03 00:02:21;;;;;;;;;4.00;3.00;;;;;12.88;66.02;101293.22;4939069;28;45341;-52
2022/01/03 00:04:46;;;;;;;;;4.40;2.00;;;;;12.88;66.29;101285.78;4956271;28;45216;-56
2022/01/03 00:07:12;;;;;;;;;5.50;3.25;;;;;12.86;66.50;101282.38;4956593;28;45437;-57
2022/01/03 00:09:37;;;;;;;;;2.75;2.75;;;;;12.82;66.63;101285.78;4955807;28;46041;-53
2022/01/03 00:12:04;;;;;;;;;5.00;3.00;;;;;12.85;66.53;101296.38;4938544;28;45328;-54
2022/01/03 00:14:31;;;;;;;;;4.00;2.20;;;;;12.86;66.71;101295.34;4954130;28;45481;-56
2022/01/03 00:16:56;;;;;;;;;2.80;2.20;;;;;12.85;66.43;101286.22;4938794;28;45610;-57
2022/01/03 00:19:23;;;;;;;;;5.75;2.50;;;;;12.65;66.75;101257.84;4955764;28;46170;-51
2022/01/03 00:21:48;;;;;;;;;8.40;3.00;;;;;12.88;66.49;101299.53;4938373;28;45421;-52
2022/01/03 00:24:14;;;;;;;;;3.75;2.50;;;;;12.85;66.26;101301.88;4895025;28;45322;-58
2022/01/03 00:26:39;;;;;;;;;5.25;3.25;;;;;12.84;66.40;101298.28;4938156;28;45555;-52
2022/01/03 00:29:14;;;;;;;;;9.25;3.00;;;;;12.77;66.41;101302.09;4955471;28;46495;-54
2022/01/03 00:31:41;;;;;;;;;9.40;5.00;;;;;12.78;66.87;101315.69;4922961;28;45388;-57
2022/01/03 00:34:11;;;;;;;;;4.80;2.80;;;;;12.77;66.55;101308.47;4955993;28;45420;-55
2022/01/03 00:36:37;;;;;;;;;3.60;3.60;;;;;12.81;66.72;101314.41;4939044;28;45452;-52
2022/01/03 00:39:07;;;;;;;;;3.25;2.25;;;;;12.80;66.57;101321.81;4955497;28;45899;-49
2022/01/03 00:41:35;;;;;;;;;9.00;3.00;;;;;12.83;66.75;101326.91;4956541;28;45425;-57
2022/01/03 00:44:01;;;;;;;;;4.80;4.00;;;;;12.76;66.07;101298.53;4959404;28;45399;-56
2022/01/03 00:46:27;;;;;;;;;5.25;3.75;;;;;12.81;66.44;101323.50;4958144;28;45349;-52
2022/01/03 00:48:53;;;;;;;;;3.40;2.00;;;;;12.84;66.66;101324.97;4956858;28;45403;-55
2022/01/03 00:51:19;;;;;;;;;5.60;3.60;;;;;12.83;66.61;101321.41;4959337;28;45383;-53
2022/01/03 00:53:48;;;;;;;;;3.80;1.40;;;;;12.81;66.69;101323.50;4941528;28;45426;-51
2022/01/03 00:56:27;;;;;;;;;6.00;3.40;;;;;12.66;66.76;101296.19;4958752;28;45557;-51
2022/01/03 00:58:55;;;;;;;;;2.80;2.80;;;;;12.81;66.62;101320.75;4937427;28;46620;-54
2022/01/03 01:01:20;;;;;;;;;5.00;2.80;;;;;12.79;66.76;101333.03;4938253;28;45399;-51
2022/01/03 01:03:47;;;;;;;;;4.25;2.00;;;;;12.80;66.97;101327.31;4905893;28;45385;-57
2022/01/03 01:06:13;;;;;;;;;4.60;2.00;;;;;12.83;66.96;101321.41;4939613;28;45475;-54
2022/01/03 01:08:38;;;;;;;;;2.75;2.00;;;;;12.84;66.83;101324.97;4939068;28;45458;-54
2022/01/03 01:11:05;;;;;;;;;5.50;3.25;;;;;12.84;66.80;101331.34;4938965;28;45630;-55
2022/01/03 01:13:31;;;;;;;;;5.80;2.60;;;;;12.83;66.27;101332.41;4939328;28;45433;-56
2022/01/03 01:15:56;;;;;;;;;6.00;4.00;;;;;12.78;66.50;101340.47;4939117;28;45722;-51
2022/01/03 01:18:24;;;;;;;;;5.25;2.00;;;;;12.71;66.96;101331.34;4939227;28;45853;-54
2022/01/03 01:20:50;;;;;;;;;2.60;2.60;;;;;12.77;66.98;101329.66;4939142;28;45295;-54
2022/01/03 01:23:16;;;;;;;;;4.25;2.25;;;;;12.79;66.97;101328.38;4921302;28;45373;-57
2022/01/03 01:28:08;;;;;;;;;3.50;1.00;;;;;12.81;67.23;101330.94;4938722;28;46600;-50
2022/01/03 01:30:34;;;;;;;;;5.40;4.00;;;;;12.76;66.85;101326.06;4937721;28;45468;-50
2022/01/03 01:33:03;;;;;;;;;7.75;4.25;;;;;12.76;66.83;101312.28;4938805;28;45380;-56
2022/01/03 01:36:05;;;;;;;;;5.20;1.60;;;;;12.81;66.97;101326.25;4939266;28;45482;-54
2022/01/03 01:38:33;;;;;;;;;6.60;2.60;;;;;12.82;66.90;101321.59;4937577;28;46809;-56
2022/01/03 01:41:00;;;;;;;;;4.80;1.80;;;;;12.81;67.13;101314.41;4937968;28;45248;-56
2022/01/03 01:43:33;;;;;;;;;5.40;3.40;;;;;12.81;67.01;101315.22;4939003;28;45349;-55
2022/01/03 01:45:59;;;;;;;;;5.60;3.60;;;;;12.81;67.16;101319.91;4922011;28;45322;-54
2022/01/03 01:48:25;;;;;;;;;2.40;2.00;;;;;12.80;67.15;101319.06;4937426;28;45454;-54
2022/01/03 01:50:51;;;;;;;;;2.00;1.00;;;;;12.77;66.81;101313.13;4921754;28;45336;-51
2022/01/03 01:53:22;;;;;;;;;5.00;4.00;;;;;12.80;67.10;101326.50;4920992;28;45455;-51
2022/01/03 01:55:48;;;;;;;;;3.80;2.20;;;;;12.76;67.17;101312.28;4939152;28;45472;-51
2022/01/03 01:58:30;;;;;;;;;2.60;2.00;;;;;12.70;67.18;101291.09;4948258;28;46351;-55
2022/01/03 02:01:04;;;;;;;;;1.40;0.80;;;;;12.56;67.12;101265.47;4957241;28;46079;-54
2022/01/03 02:03:51;;;;;;;;;8.80;1.60;;;;;12.70;67.36;101299.38;4958119;28;45332;-51
2022/01/03 02:06:26;;;;;;;;;7.60;2.20;;;;;12.72;66.98;101295.31;4958728;28;45744;-53
2022/01/03 02:09:08;;;;;;;;;5.00;2.80;;;;;12.73;67.01;101305.31;4950088;28;46737;-56
2022/01/03 02:12:00;;;;;;;;;3.20;2.00;;;;;12.73;67.54;101307.19;4945705;28;45324;-53
2022/01/03 02:14:26;;;;;;;;;3.40;3.20;;;;;12.57;67.18;101289.19;4921269;28;45651;-58
2022/01/03 02:16:52;;;;;;;;;3.40;2.00;;;;;12.66;67.09;101312.72;4957264;28;45662;-53
2022/01/03 02:19:19;;;;;;;;;6.60;3.00;;;;;12.59;67.22;101309.94;4958035;28;45340;-52
2022/01/03 02:21:45;;;;;;;;;2.80;2.80;;;;;12.63;67.39;101315.06;4957691;28;45449;-52
2022/01/03 02:24:11;;;;;;;;;4.00;3.00;;;;;12.63;67.58;101310.38;4957745;28;45382;-55
2022/01/03 02:26:36;;;;;;;;;3.25;2.00;;;;;12.64;67.10;101311.22;4957673;28;45424;-54
2022/01/03 02:29:03;;;;;;;;;1.25;1.00;;;;;12.60;67.25;101308.88;4957782;28;46300;-51
2022/01/03 02:31:28;;;;;;;;;5.80;4.20;;;;;12.63;67.20;101310.38;4956288;28;45313;-50
2022/01/03 02:33:54;;;;;;;;;1.00;1.00;;;;;12.64;67.53;101314.81;4957715;28;45211;-57
2022/01/03 02:36:19;;;;;;;;;3.00;1.50;;;;;12.61;67.40;101329.03;4957584;28;45595;-52
2022/01/03 02:38:45;;;;;;;;;4.25;3.00;;;;;12.63;67.63;101332.41;4957292;28;46470;-52
2022/01/03 02:41:10;;;;;;;;;3.25;1.00;;;;;12.64;67.42;101327.75;4957844;28;45264;-53
2022/01/03 02:43:36;;;;;;;;;2.00;2.00;;;;;12.66;67.87;101325.63;4958031;28;45322;-50
2022/01/03 02:46:02;;;;;;;;;3.25;1.50;;;;;12.64;67.41;101327.75;4957981;28;45300;-52
2022/01/03 02:48:27;;;;;;;;;2.75;1.75;;;;;12.62;67.69;101311.44;4939505;28;47535;-51
2022/01/03 02:50:53;;;;;;;;;4.00;2.25;;;;;12.61;67.96;101312.50;4957349;28;45503;-52
2022/01/03 02:53:19;;;;;;;;;4.00;1.00;;;;;12.63;68.00;101317.81;4940217;28;46109;-51
2022/01/03 02:55:45;;;;;;;;;7.50;4.00;;;;;12.63;67.88;101328.81;4957030;28;45509;-54
2022/01/03 02:58:10;;;;;;;;;3.25;3.25;;;;;12.60;67.79;101324.59;4957557;28;45488;-55
2022/01/03 03:00:45;;;;;;;;;4.50;3.00;;;;;12.59;67.75;101314.59;4956007;28;45482;-52
2022/01/03 03:03:12;;;;;;;;;4.20;3.40;;;;;12.61;67.65;101307.81;4957842;28;45347;-51
2022/01/03 03:05:38;;;;;;;;;4.00;4.00;;;;;12.63;67.88;101317.81;4956631;28;45286;-55
2022/01/03 03:08:04;;;;;;;;;3.75;3.25;;;;;12.61;68.09;101305.06;4957067;28;46346;-53
2022/01/03 03:10:29;;;;;;;;;4.50;3.00;;;;;12.64;68.04;101297.47;4956939;28;45162;-52
2022/01/03 03:12:55;;;;;;;;;3.00;2.00;;;;;12.64;67.94;101298.28;4915808;28;45394;-59
2022/01/03 03:15:22;;;;;;;;;3.50;3.00;;;;;12.60;67.76;101295.13;4956733;28;45633;-55
2022/01/03 03:17:47;;;;;;;;;7.00;2.60;;;;;12.60;67.64;101286.84;4936567;28;46863;-52
2022/01/03 03:20:15;;;;;;;;;9.75;3.75;;;;;12.64;67.94;101286.44;4956098;28;45221;-50
2022/01/03 03:22:41;;;;;;;;;2.20;2.00;;;;;12.66;67.82;101295.34;4938130;28;45452;-55
2022/01/03 03:25:08;;;;;;;;;3.25;2.00;;;;;12.67;67.84;101294.28;4956584;28;45527;-55
2022/01/03 03:27:36;;;;;;;;;3.00;2.00;;;;;12.59;67.51;101276.91;4939813;28;46260;-53
2022/01/03 03:30:03;;;;;;;;;6.80;3.00;;;;;12.67;67.41;101286.88;4955317;28;45266;-52
2022/01/03 03:32:28;;;;;;;;;7.40;2.00;;;;;12.65;67.51;101277.13;4956908;28;45405;-53
2022/01/03 03:34:54;;;;;;;;;3.75;2.50;;;;;12.66;67.53;101287.06;4956998;28;45534;-57
2022/01/03 03:37:19;;;;;;;;;5.75;3.00;;;;;12.72;67.44;101277.97;4956269;28;46010;-49
2022/01/03 03:39:46;;;;;;;;;1.75;1.75;;;;;12.71;67.91;101284.53;4956407;28;45421;-55
2022/01/03 03:42:12;;;;;;;;;2.00;1.60;;;;;12.67;67.32;101280.50;4956617;28;45233;-55
2022/01/03 03:44:38;;;;;;;;;3.00;1.75;;;;;12.69;67.34;101290.25;4939677;28;45534;-56
2022/01/03 03:47:04;;;;;;;;;3.50;3.00;;;;;12.71;67.02;101276.28;4956653;28;45625;-55
2022/01/03 03:49:29;;;;;;;;;4.80;2.00;;;;;12.53;67.27;101241.97;4939106;28;45383;-53
2022/01/03 03:51:55;;;;;;;;;2.25;2.25;;;;;12.70;67.11;101263.56;4957001;28;45340;-54
2022/01/03 03:54:20;;;;;;;;;5.00;3.75;;;;;12.76;67.26;101272.88;4939450;28;45610;-53
2022/01/03 03:56:46;;;;;;;;;4.75;4.00;;;;;12.74;67.37;101270.31;4956295;28;45390;-50
2022/01/03 03:59:14;;;;;;;;;4.25;2.75;;;;;12.76;67.84;101270.13;4956292;28;45515;-56
2022/01/03 04:01:40;;;;;;;;;2.00;2.00;;;;;12.73;67.41;101268.63;4938864;28;45503;-54
2022/01/03 04:04:06;;;;;;;;;4.00;1.75;;;;;12.74;67.61;101270.31;4956789;28;45516;-51
2022/01/03 04:06:31;;;;;;;;;3.75;3.75;;;;;12.75;67.53;101263.75;4956040;28;45550;-52
2022/01/03 04:08:57;;;;;;;;;2.00;2.00;;;;;12.74;67.50;101264.81;4939276;28;45456;-56
2022/01/03 04:11:23;;;;;;;;;6.00;4.50;;;;;12.76;67.90;101251.69;4938731;28;45455;-53
2022/01/03 04:13:50;;;;;;;;;4.20;2.40;;;;;12.75;67.67;101249.97;4956477;28;45310;-51
2022/01/03 04:16:15;;;;;;;;;5.40;2.80;;;;;12.65;67.51;101233.06;4956013;28;46233;-53
2022/01/03 04:18:41;;;;;;;;;6.75;1.75;;;;;12.69;67.50;101240.69;4955222;28;45470;-55
2022/01/03 04:21:07;;;;;;;;;7.25;3.00;;;;;12.70;67.65;101249.81;4956077;28;45381;-54
2022/01/03 04:23:32;;;;;;;;;3.75;3.00;;;;;12.53;67.60;101219.09;4956509;28;45245;-53
2022/01/03 04:25:58;;;;;;;;;6.50;4.00;;;;;12.52;67.81;101206.38;4956135;28;45475;-58
2022/01/03 04:28:23;;;;;;;;;4.00;2.50;;;;;12.73;67.80;101241.09;4955943;28;45617;-54
2022/01/03 04:30:51;;;;;;;;;5.00;3.25;;;;;12.71;67.84;101237.72;4956179;28;45393;-54
2022/01/03 04:33:16;;;;;;;;;4.20;2.00;;;;;12.67;67.98;101229.03;4956565;28;45372;-58
2022/01/03 04:35:42;;;;;;;;;3.25;2.00;;;;;12.71;67.87;101238.53;4955809;28;45697;-54
2022/01/03 04:38:07;;;;;;;;;8.00;1.75;;;;;12.69;67.69;101234.31;4954748;28;45408;-51
2022/01/03 04:40:33;;;;;;;;;3.00;1.00;;;;;12.69;67.62;101228.81;4938568;28;45326;-55
2022/01/03 04:42:58;;;;;;;;;6.25;3.50;;;;;12.67;68.07;101222.66;4956262;28;45340;-52
2022/01/03 04:45:24;;;;;;;;;4.75;2.00;;;;;12.66;67.89;101215.47;4955573;28;45320;-53
2022/01/03 04:47:49;;;;;;;;;2.75;1.75;;;;;12.67;67.79;101223.53;4956032;28;45344;-58
2022/01/03 04:50:15;;;;;;;;;7.25;2.75;;;;;12.48;67.51;101186.69;4954874;28;45325;-52
2022/01/03 04:52:41;;;;;;;;;5.60;2.40;;;;;12.67;67.41;101212.50;4955997;28;45267;-56
2022/01/03 04:55:07;;;;;;;;;6.75;2.50;;;;;12.69;67.59;101224.16;4955607;28;47052;-57
2022/01/03 04:57:33;;;;;;;;;5.80;2.00;;;;;12.67;67.48;101223.53;4955179;28;45762;-54
2022/01/03 04:59:59;;;;;;;;;3.00;1.75;;;;;12.67;67.52;101220.78;4938259;28;45541;-51
2022/01/03 05:02:24;;;;;;;;;3.00;2.00;;;;;12.63;67.69;101215.91;4955769;28;45400;-53
2022/01/03 05:04:50;;;;;;;;;2.00;2.00;;;;;12.67;67.50;101218.03;4955305;28;45601;-57
2022/01/03 05:07:16;;;;;;;;;3.20;3.00;;;;;12.68;67.78;101219.72;4954165;28;45459;-54
2022/01/03 05:09:41;;;;;;;;;1.50;1.50;;;;;12.67;67.93;101214.41;4955342;28;45387;-55
2022/01/03 05:12:07;;;;;;;;;3.25;1.75;;;;;12.60;67.97;101192.41;4955310;28;45453;-55
2022/01/03 05:14:32;;;;;;;;;3.00;1.75;;;;;12.69;67.70;101195.75;4937905;28;45558;-55
2022/01/03 05:16:58;;;;;;;;;1.75;1.50;;;;;12.67;67.66;101201.50;4955156;28;45498;-51
2022/01/03 05:19:24;;;;;;;;;2.50;2.00;;;;;12.64;67.90;101204.66;4955604;28;45348;-58
2022/01/03 05:21:50;;;;;;;;;5.20;1.60;;;;;12.59;67.87;101185.19;4955361;28;45396;-51
2022/01/03 05:24:16;;;;;;;;;3.80;2.00;;;;;12.24;67.90;101134.00;4955204;28;45399;-54
2022/01/03 05:26:42;;;;;;;;;3.00;2.00;;;;;12.67;68.04;101192.38;4937498;28;45350;-57
2022/01/03 05:29:07;;;;;;;;;4.75;2.00;;;;;12.68;68.03;101205.94;4957307;28;45370;-54
2022/01/03 05:31:33;;;;;;;;;3.25;2.00;;;;;12.69;67.95;101201.25;4957456;28;45337;-50
2022/01/03 05:34:00;;;;;;;;;3.75;1.50;;;;;12.69;67.93;101204.88;4958436;28;46353;-53
2022/01/03 05:36:26;;;;;;;;;6.20;2.00;;;;;12.68;68.33;101207.84;4958158;28;45347;-54
2022/01/03 05:38:51;;;;;;;;;3.50;3.00;;;;;12.68;67.88;101199.56;4958385;28;45407;-52
2022/01/03 05:41:17;;;;;;;;;6.50;3.25;;;;;12.68;68.13;101210.59;4958685;28;45395;-56
2022/01/03 05:43:42;;;;;;;;;3.75;3.75;;;;;12.68;68.38;101216.09;4956894;28;46563;-55
2022/01/03 05:46:08;;;;;;;;;3.00;2.00;;;;;12.66;68.12;101207.22;4957879;28;45699;-53
2022/01/03 05:48:33;;;;;;;;;2.00;2.00;;;;;12.61;68.05;101205.94;4958519;28;45335;-53
2022/01/03 05:50:59;;;;;;;;;4.50;2.00;;;;;12.66;68.07;101208.06;4958274;28;45562;-57
2022/01/03 05:53:24;;;;;;;;;3.00;2.00;;;;;12.64;68.38;101201.91;4946460;28;48332;-54
2022/01/03 05:55:50;;;;;;;;;5.75;4.00;;;;;12.64;68.16;101203.84;4949349;28;45435;-54
2022/01/03 05:58:16;;;;;;;;;1.00;1.00;;;;;12.50;68.52;101187.34;4958005;28;45292;-56
2022/01/03 06:00:42;;;;;;;;;3.00;1.25;;;;;12.59;68.26;101205.31;4957294;28;45382;-52
2022/01/03 06:03:07;;;;;;;;;2.80;2.60;;;;;12.40;68.41;101175.91;4957924;28;46322;-55
2022/01/03 06:08:01;;;;;;;;;4.20;2.40;;;;;12.63;68.55;101215.91;4958124;28;45387;-61
2022/01/03 06:10:27;;;;;;;;;5.50;3.00;;;;;12.59;68.07;101209.97;4958012;28;45502;-53
2022/01/03 06:12:52;;;;;;;;;3.00;2.00;;;;;12.58;68.17;101209.13;4956622;28;46243;-52
2022/01/03 06:15:21;;;;;;;;;13.00;11.00;;;;;12.56;68.59;101205.75;4956605;28;45350;-56
2022/01/03 06:17:47;;;;;;;;;5.80;4.40;;;;;12.58;68.18;101211.88;4956783;28;45388;-53
2022/01/03 06:20:12;;;;;;;;;3.50;3.00;;;;;12.40;68.28;101179.50;4956834;28;45318;-51
2022/01/03 06:22:42;;;;;;;;;2.75;1.00;;;;;12.60;68.51;101209.75;4957662;28;45301;-52
2022/01/03 06:25:08;;;;;;;;;2.60;1.80;;;;;12.61;68.38;101205.94;4940113;28;45501;-55
2022/01/03 06:27:34;;;;;;;;;3.20;3.00;;;;;12.44;68.34;101179.94;4940568;28;45311;-54
2022/01/03 06:29:59;;;;;;;;;3.25;2.00;;;;;12.56;68.35;101200.25;4957997;28;45242;-50
2022/01/03 06:32:25;;;;;;;;;3.00;1.00;;;;;12.57;68.41;101195.56;4923422;28;46220;-54
2022/01/03 06:34:55;;;;;;;;;9.40;2.20;;;;;12.61;68.56;101197.69;4957379;28;45688;-51
2022/01/03 06:37:20;;;;;;;;;2.25;2.25;;;;;12.58;68.32;101192.63;4957353;28;45453;-54
2022/01/03 06:39:45;;;;;;;;;3.75;2.25;;;;;12.60;68.54;101196.00;4956208;28;45353;-53
2022/01/03 06:42:11;;;;;;;;;3.00;2.00;;;;;12.60;68.21;101186.91;4957326;28;46425;-54
2022/01/03 06:44:37;;;;;;;;;7.75;2.75;;;;;12.60;68.68;101187.72;4957149;28;45425;-56
2022/01/03 06:47:02;;;;;;;;;35.25;28.50;;;;;12.61;68.57;101178.41;4957090;28;45435;-53
2022/01/03 06:49:28;;;;;;;;;4.25;3.00;;;;;12.62;68.57;101171.00;4957031;28;45474;-52
2022/01/03 06:51:53;;;;;;;;;4.50;2.75;;;;;12.61;68.45;101178.41;4956999;28;45519;-57
2022/01/03 06:54:22;;;;;;;;;4.00;1.75;;;;;12.01;68.34;101091.22;4956767;28;45233;-54
2022/01/03 06:56:48;;;;;;;;;8.20;4.00;;;;;12.58;68.32;101178.84;4956987;28;45283;-53
2022/01/03 06:59:13;;;;;;;;;6.75;4.50;;;;;12.60;68.51;101176.72;4955955;28;45533;-53
2022/01/03 07:01:39;;;;;;;;;5.25;3.25;;;;;12.57;68.55;101179.91;4956506;28;46218;-57
2022/01/03 07:04:04;;;;;;;;;7.75;3.75;;;;;12.59;68.34;101190.69;4939459;28;45449;-51
2022/01/03 07:06:31;;;;;;;;;6.25;4.00;;;;;12.59;68.75;101174.16;4956751;28;45430;-52
2022/01/03 07:08:57;;;;;;;;;4.20;3.60;;;;;12.57;68.57;101171.66;4957284;28;45590;-58
2022/01/03 07:11:23;;;;;;;;;1.75;1.75;;;;;12.56;68.42;101156.19;4956578;28;45500;-56
2022/01/03 07:13:52;;;;;;;;;5.25;2.25;;;;;12.57;68.63;101157.88;4956586;28;45324;-52
2022/01/03 07:19:06;;;;;;;;;3.20;1.60;;;;;12.51;68.91;101150.47;4957844;28;45413;-54
2022/01/03 07:21:32;;;;;;;;;8.00;3.00;;;;;12.48;68.67;101150.91;4940351;28;47201;-52
2022/01/03 07:23:57;;;;;;;;;6.60;4.40;;;;;12.50;68.67;101145.19;4939684;28;45938;-52
2022/01/03 07:26:27;;;;;;;;;2.25;2.00;;;;;12.37;68.80;101146.06;4923062;28;45936;-53
2022/01/03 07:28:53;;;;;;;;;7.60;4.00;;;;;12.54;68.63;101161.06;4956917;28;45208;-58
2022/01/03 07:31:18;;;;;;;;;5.20;2.00;;;;;12.54;68.82;101158.28;4956459;28;45372;-54
2022/01/03 07:33:44;;;;;;;;;6.75;4.00;;;;;12.56;68.65;101164.47;4954772;28;45509;-56
2022/01/03 07:36:10;;;;;;;;;5.25;2.25;;;;;12.53;68.95;101148.34;4956787;28;45435;-58
2022/01/03 07:38:36;;;;;;;;;2.75;2.75;;;;;12.56;68.29;101158.94;4939131;28;45373;-52
2022/01/03 07:41:03;;;;;;;;;10.20;4.00;;;;;12.09;69.24;101078.34;4939095;28;46155;-50
2022/01/03 07:43:29;;;;;;;;;6.20;2.60;;;;;12.42;68.79;101119.56;4956315;28;45347;-55
2022/01/03 07:45:54;;;;;;;;;5.60;3.80;;;;;12.56;68.91;101147.94;4956514;28;45341;-58
2022/01/03 07:48:20;;;;;;;;;4.50;4.50;;;;;12.55;69.01;101151.72;4918157;28;45706;-55
2022/01/03 07:50:45;;;;;;;;;8.50;3.00;;;;;12.56;69.13;101150.69;4937770;28;47409;-54
2022/01/03 07:53:11;;;;;;;;;4.50;1.00;;;;;12.53;68.70;101137.34;4956186;28;45464;-54
2022/01/03 07:55:36;;;;;;;;;2.00;2.00;;;;;12.54;69.10;101136.28;4956591;28;45337;-54
2022/01/03 07:58:03;;;;;;;;;7.25;2.50;;;;;12.37;68.98;101113.03;4954961;28;45788;-55
2022/01/03 08:00:28;;;;;;;;;4.00;1.60;;;;;12.53;69.14;101148.34;4938581;28;45936;-55
2022/01/03 08:02:54;;;;;;;;;1.00;0.00;;;;;12.53;69.30;101137.34;4956200;28;45552;-56
2022/01/03 08:05:20;;;;;;;;;5.25;2.75;;;;;12.51;69.08;101136.72;4938804;28;45478;-53
2022/01/03 08:07:45;;;;;;;;;3.50;2.75;;;;;12.47;69.19;101116.16;4939019;28;45445;-54
2022/01/03 08:10:11;;;;;;;;;3.75;3.75;;;;;12.26;69.08;101092.50;4938581;28;45523;-51
2022/01/03 08:12:37;;;;;;;;;4.60;2.40;;;;;12.53;69.51;101126.31;4938655;28;45314;-57
2022/01/03 08:15:04;;;;;;;;;5.25;2.25;;;;;12.53;69.20;101125.50;4955428;28;45484;-54
2022/01/03 08:17:30;;;;;;;;;8.80;4.20;;;;;12.50;69.50;101114.91;4939072;28;45513;-55
2022/01/03 08:19:55;;;;;;;;;9.50;2.25;;;;;12.45;70.23;101121.06;4955637;28;45448;-53
2022/01/03 08:22:21;;;;;;;;;2.75;2.75;;;;;12.45;69.62;101124.63;4954434;28;45504;-56
2022/01/03 08:24:46;;;;;;;;;4.50;3.50;;;;;12.50;69.85;101114.91;4937950;28;45220;-53
2022/01/03 08:27:12;;;;;;;;;3.50;1.75;;;;;12.50;69.56;101109.41;4955636;28;45749;-59
2022/01/03 08:29:38;;;;;;;;;2.60;2.60;;;;;12.52;69.57;101110.88;4954397;28;45862;-54
2022/01/03 08:32:04;;;;;;;;;4.50;2.75;;;;;12.50;69.70;101114.91;4938037;28;45703;-52
2022/01/03 08:34:29;;;;;;;;;10.00;5.25;;;;;12.54;70.06;101110.66;4938525;28;45374;-58
2022/01/03 08:36:55;;;;;;;;;8.00;4.75;;;;;12.53;69.55;101120.00;4938776;28;45435;-53
2022/01/03 08:39:20;;;;;;;;;6.00;2.75;;;;;12.55;69.94;101124.19;4938091;28;46473;-56
2022/01/03 08:41:46;;;;;;;;;4.00;2.75;;;;;12.52;69.80;101102.63;4938161;28;45411;-58
2022/01/03 08:44:11;;;;;;;;;5.00;2.75;;;;;12.58;69.90;101120.16;4913602;28;45587;-57
2022/01/03 08:46:37;;;;;;;;;8.25;4.00;;;;;12.58;69.51;101121.03;4944162;28;45345;-55
2022/01/03 08:49:03;;;;;;;;;6.00;4.00;;;;;12.56;69.83;101111.28;4937893;28;47003;-56
2022/01/03 08:51:28;;;;;;;;;5.25;4.00;;;;;12.55;69.68;101107.66;4938242;28;45371;-57
2022/01/03 08:53:54;;;;;;;;;12.50;3.00;;;;;12.58;70.15;101098.13;4955709;28;45440;-54
2022/01/03 08:56:20;;;;;;;;;8.50;4.00;;;;;12.53;69.76;101087.78;4954466;28;45210;-56
2022/01/03 08:58:45;;;;;;;;;6.00;3.00;;;;;12.59;69.87;101097.06;4950528;28;46199;-55
2022/01/03 09:01:11;;;;;;;;;4.50;3.00;;;;;12.59;70.02;101097.06;4935769;28;45757;-54
2022/01/03 09:03:36;;;;;;;;;3.00;3.00;;;;;12.53;70.27;101087.78;4938710;28;45829;-52
2022/01/03 09:06:02;;;;;;;;;3.50;2.50;;;;;12.60;69.96;101109.81;4939647;28;45357;-53
2022/01/03 09:08:28;;;;;;;;;4.25;3.75;;;;;12.60;70.13;101099.63;4883186;28;47966;-55
2022/01/03 09:10:53;;;;;;;;;5.00;3.75;;;;;12.54;70.51;101083.97;4903541;28;45725;-59
2022/01/03 09:13:20;;;;;;;;;3.50;2.00;;;;;12.55;70.46;101090.31;4914413;28;45515;-61
2022/01/03 09:15:46;;;;;;;;;4.00;2.60;;;;;12.61;70.30;101104.06;4914536;28;45649;-55
2022/01/03 09:18:16;;;;;;;;;8.80;2.40;;;;;12.47;70.36;101074.88;4898738;28;47459;-52
2022/01/03 09:20:41;;;;;;;;;3.80;3.80;;;;;12.40;70.27;101066.66;4915720;28;45779;-59
2022/01/03 09:23:12;;;;;;;;;2.75;1.25;;;;;12.63;70.20;101100.25;4914662;28;45476;-57
2022/01/03 09:30:50;;;;;;;;;5.00;4.00;;;;;12.64;70.09;101102.78;4912648;28;45468;-60
2022/01/03 09:33:16;;;;;;;;;4.50;4.50;;;;;12.69;70.38;101099.38;4915351;28;45504;-62
2022/01/03 09:35:42;;;;;;;;;2.50;2.00;;;;;12.56;70.38;101081.84;4934527;28;45573;-57
2022/01/03 09:38:08;;;;;;;;;5.60;3.80;;;;;12.66;70.47;101097.06;4933294;28;45487;-58
2022/01/03 09:40:34;;;;;;;;;6.75;2.50;;;;;12.59;69.84;101064.03;4933237;28;45711;-60
2022/01/03 09:43:00;;;;;;;;;4.20;3.00;;;;;12.78;69.67;101086.19;4934869;28;45738;-62
2022/01/03 09:45:28;;;;;;;;;5.50;3.00;;;;;12.80;69.65;101087.69;4934352;28;45408;-56
2022/01/03 09:47:54;;;;;;;;;3.00;3.00;;;;;12.83;69.68;101090.00;4895123;28;45617;-53
2022/01/03 09:50:21;;;;;;;;;2.00;2.00;;;;;12.82;70.00;101096.56;4915513;28;45464;-54
2022/01/03 09:52:47;;;;;;;;;2.60;2.40;;;;;12.82;70.00;101104.81;4915662;28;45448;-57
2022/01/03 09:55:13;;;;;;;;;9.60;3.00;;;;;12.80;70.43;101108.88;4915635;28;45396;-58
2022/01/03 09:57:39;;;;;;;;;6.40;2.80;;;;;12.84;69.59;101113.72;4918914;28;45800;-54
2022/01/03 10:00:05;;;;;;;;;3.00;3.00;;;;;12.85;69.85;101107.16;4933112;28;45357;-57
2022/01/03 10:02:30;;;;;;;;;8.40;4.60;;;;;12.87;69.62;101099.50;4948688;28;45426;-62
2022/01/03 10:04:56;;;;;;;;;3.00;2.00;;;;;12.90;69.55;101086.38;4933710;28;45475;-55
2022/01/03 10:07:22;;;;;;;;;8.25;3.00;;;;;12.90;69.58;101092.72;4930803;28;46094;-52
2022/01/03 10:09:47;;;;;;;;;4.75;3.75;;;;;12.87;69.13;101071.13;4907053;28;47788;-58
2022/01/03 10:12:14;;;;;;;;;4.50;1.75;;;;;12.96;68.96;101080.81;4948566;28;45508;-55
2022/01/03 10:14:41;;;;;;;;;1.80;1.20;;;;;12.97;68.84;101085.25;4942610;28;45702;-53
2022/01/03 10:17:06;;;;;;;;;3.00;1.60;;;;;13.01;68.92;101093.94;4933402;28;45648;-50
2022/01/03 10:19:51;;;;;;;;;4.00;3.00;;;;;12.96;68.89;101080.00;4933973;28;45882;-58
2022/01/03 10:22:35;;;;;;;;;4.40;3.00;;;;;13.06;68.70;101085.88;4933549;28;45423;-55
2022/01/03 10:25:26;;;;;;;;;5.80;4.00;;;;;13.05;68.69;101072.28;4934033;28;45301;-59
2022/01/03 10:28:01;;;;;;;;;9.40;2.40;;;;;13.06;68.93;101079.50;4933209;28;46835;-57
2022/01/03 10:30:41;;;;;;;;;3.40;2.20;;;;;13.06;68.59;101073.97;4933176;28;45455;-57
2022/01/03 10:33:09;;;;;;;;;4.80;4.80;;;;;13.05;68.48;101059.38;4932348;28;45701;-59
2022/01/03 10:35:36;;;;;;;;;3.60;2.60;;;;;13.02;68.86;101049.63;4916041;28;45383;-59
2022/01/03 10:38:01;;;;;;;;;4.60;1.20;;;;;13.02;68.78;101066.16;4932411;28;45598;-61
2022/01/03 10:40:29;;;;;;;;;4.00;1.00;;;;;13.01;69.00;101050.72;4933766;28;45723;-55
2022/01/03 10:43:12;;;;;;;;;6.20;2.00;;;;;13.01;68.47;101047.09;4900765;28;45637;-59
2022/01/03 10:45:39;;;;;;;;;6.00;1.60;;;;;13.02;68.85;101043.28;4918209;28;45466;-57
2022/01/03 10:48:05;;;;;;;;;6.40;5.80;;;;;13.01;68.93;101023.16;4891562;28;45787;-57
2022/01/03 10:50:30;;;;;;;;;6.25;1.00;;;;;12.90;68.38;101004.56;4900160;28;45418;-54
2022/01/03 10:52:56;;;;;;;;;4.00;4.00;;;;;13.02;68.45;101013.81;4915231;28;45536;-56
2022/01/03 10:55:35;;;;;;;;;3.00;2.00;;;;;12.92;68.64;100985.91;4932717;28;45349;-58
2022/01/03 10:58:04;;;;;;;;;4.00;4.00;;;;;13.19;68.09;101017.94;4930891;28;46160;-52
2022/01/03 11:00:37;;;;;;;;;4.00;3.20;;;;;13.04;68.36;100994.31;4932023;28;45394;-59
2022/01/03 11:03:10;;;;;;;;;3.20;2.00;;;;;13.20;68.37;101025.16;4933099;28;45491;-51
2022/01/03 11:05:40;;;;;;;;;7.60;2.40;;;;;13.17;68.17;101003.56;4934142;28;45508;-58
2022/01/03 11:10:44;;;;;;;;;3.60;2.80;;;;;13.22;68.18;100998.19;4933671;28;45449;-57
2022/01/03 11:13:13;;;;;;;;;8.60;3.00;;;;;13.25;67.87;100986.75;4933947;28;45520;-52
2022/01/03 11:15:43;;;;;;;;;3.80;3.40;;;;;13.26;67.57;100985.69;4934162;28;45683;-58
2022/01/03 11:18:10;;;;;;;;;3.00;1.60;;;;;13.28;67.60;100986.28;4915932;28;45798;-54
2022/01/03 11:20:35;;;;;;;;;3.40;2.80;;;;;13.39;67.85;100988.31;4933835;28;45538;-54
2022/01/03 11:23:01;;;;;;;;;4.50;3.25;;;;;13.44;67.00;100982.13;4899886;28;45472;-51
2022/01/03 11:25:30;;;;;;;;;4.25;3.25;;;;;13.45;66.87;100966.44;4932591;28;45598;-56
2022/01/03 11:27:56;;;;;;;;;7.00;3.60;;;;;13.41;67.10;100963.28;4915902;28;46157;-58
2022/01/03 11:30:22;;;;;;;;;8.25;3.25;;;;;13.50;67.02;100963.88;4915185;28;45606;-57
2022/01/03 11:32:49;;;;;;;;;4.00;2.00;;;;;13.50;67.32;100967.47;4900278;28;45777;-59
2022/01/03 11:35:15;;;;;;;;;5.00;3.00;;;;;13.48;67.08;100957.72;4916026;28;45608;-58
2022/01/03 11:37:41;;;;;;;;;7.60;3.40;;;;;13.23;66.54;100897.94;4931257;28;46929;-56
2022/01/03 11:40:08;;;;;;;;;5.20;2.40;;;;;13.35;66.89;100936.63;4898528;28;45487;-50